Time;durP1;ratioP1;P1;durP2;ratioP2;P2;SDS_P1;SDS_P2;PMS_P1;PMS_P2;Temp;Humidity;BMP_temperature;BMP_pressure;BME280_temperature;BME280_humidity;BME280_pressure;Samples;Min_cycle;Max_cycle;Signal;HPM_P1;HPM_P2
2021/03/22 00:04:04;;;;;;;16.00;7.53;;;;;;;;;;4954221;29;20431;-81
2021/03/22 00:06:30;;;;;;;18.15;8.05;;;;;;;;;;4954120;29;20169;-81
2021/03/22 00:08:57;;;;;;;16.27;9.00;;;;;;;;;;4953926;29;20231;-84
2021/03/22 00:11:23;;;;;;;14.82;7.53;;;;;;;;;;4954448;29;20470;-82
2021/03/22 00:19:37;;;;;;;19.88;8.15;;;;;;;;;;4954231;29;20239;-81
2021/03/22 00:22:03;;;;;;;17.90;7.60;;;;;;;;;;4936300;29;20199;-81
2021/03/22 00:24:29;;;;;;;20.60;7.07;;;;;;;;;;4953905;29;20427;-82
2021/03/22 00:26:55;;;;;;;18.80;9.27;;;;;;;;;;4954009;29;20674;-82
2021/03/22 00:29:21;;;;;;;15.00;6.60;;;;;;;;;;4953998;29;20416;-82
2021/03/22 00:31:47;;;;;;;17.33;7.30;;;;;;;;;;4954056;28;20883;-83
2021/03/22 00:34:13;;;;;;;19.23;7.57;;;;;;;;;;4957716;29;20447;-81
2021/03/22 00:36:39;;;;;;;17.00;6.47;;;;;;;;;;4957973;29;20519;-82
2021/03/22 00:39:05;;;;;;;19.63;7.87;;;;;;;;;;4958085;29;20331;-82
2021/03/22 00:41:31;;;;;;;19.65;7.57;;;;;;;;;;4957716;29;20819;-82
2021/03/22 00:43:57;;;;;;;13.23;6.40;;;;;;;;;;4957885;29;20176;-81
2021/03/22 00:49:26;;;;;;;21.42;6.50;;;;;;;;;;4957514;28;20530;-82
2021/03/22 00:51:52;;;;;;;21.53;6.30;;;;;;;;;;4957433;29;20800;-80
2021/03/22 00:54:18;;;;;;;14.67;7.13;;;;;;;;;;4957972;29;20433;-83
2021/03/22 00:56:44;;;;;;;14.50;8.10;;;;;;;;;;4957522;29;20419;-83
2021/03/22 00:59:10;;;;;;;14.27;6.43;;;;;;;;;;4957480;29;20970;-82
2021/03/22 01:04:40;;;;;;;19.90;6.82;;;;;;;;;;4957040;29;20506;-80
2021/03/22 01:07:06;;;;;;;18.77;6.00;;;;;;;;;;4957113;29;20224;-81
2021/03/22 01:09:32;;;;;;;17.80;7.03;;;;;;;;;;4957256;29;20417;-80
2021/03/22 01:11:58;;;;;;;18.40;8.43;;;;;;;;;;4957311;29;20275;-81
2021/03/22 01:14:24;;;;;;;14.77;7.47;;;;;;;;;;4957270;29;20176;-82
2021/03/22 01:19:53;;;;;;;21.60;7.60;;;;;;;;;;4957299;29;20207;-82
2021/03/22 01:22:19;;;;;;;19.77;5.87;;;;;;;;;;4957264;29;20624;-82
2021/03/22 01:24:45;;;;;;;10.23;6.40;;;;;;;;;;4957493;29;20455;-80
2021/03/22 01:27:11;;;;;;;26.10;7.13;;;;;;;;;;4957461;29;20432;-83
2021/03/22 01:29:38;;;;;;;15.07;6.00;;;;;;;;;;4957563;29;20427;-82
2021/03/22 01:32:06;;;;;;;14.65;5.63;;;;;;;;;;4957330;29;20425;-81
2021/03/22 01:34:32;;;;;;;16.27;5.38;;;;;;;;;;4957333;29;20552;-81
2021/03/22 01:36:59;;;;;;;19.00;6.10;;;;;;;;;;4956890;29;20212;-81
2021/03/22 01:39:27;;;;;;;10.27;5.07;;;;;;;;;;4956966;29;20415;-81
2021/03/22 01:42:08;;;;;;;23.08;6.45;;;;;;;;;;4956637;29;20215;-80
2021/03/22 01:44:34;;;;;;;14.27;5.20;;;;;;;;;;4955333;28;20176;-80
2021/03/22 01:50:09;;;;;;;12.75;5.80;;;;;;;;;;4956368;29;20470;-80
2021/03/22 01:52:36;;;;;;;17.63;4.85;;;;;;;;;;4956222;29;20263;-81
2021/03/22 01:55:03;;;;;;;12.60;6.00;;;;;;;;;;4956668;29;20633;-83
2021/03/22 01:57:56;;;;;;;8.82;4.15;;;;;;;;;;4956397;29;20241;-82
2021/03/22 02:00:32;;;;;;;16.13;5.13;;;;;;;;;;4952806;29;20242;-81
2021/03/22 02:02:59;;;;;;;18.38;6.45;;;;;;;;;;4956772;29;20164;-81
2021/03/22 02:05:26;;;;;;;10.55;4.50;;;;;;;;;;4956105;29;20189;-81
2021/03/22 02:07:56;;;;;;;9.73;4.65;;;;;;;;;;4956728;29;20647;-80
2021/03/22 02:10:23;;;;;;;17.33;5.20;;;;;;;;;;4956793;29;20526;-81
2021/03/22 02:12:49;;;;;;;13.75;4.88;;;;;;;;;;4956256;29;20256;-81
2021/03/22 02:15:15;;;;;;;15.55;5.28;;;;;;;;;;4956366;29;20604;-82
2021/03/22 02:17:49;;;;;;;16.58;5.32;;;;;;;;;;4956374;29;20484;-81
2021/03/22 02:20:33;;;;;;;15.40;4.95;;;;;;;;;;4956378;29;20664;-82
2021/03/22 02:23:14;;;;;;;13.07;4.80;;;;;;;;;;4955747;29;20177;-81
2021/03/22 02:25:46;;;;;;;20.25;5.25;;;;;;;;;;4955889;29;20255;-81
2021/03/22 02:28:24;;;;;;;12.35;5.13;;;;;;;;;;4955855;29;20203;-82
2021/03/22 02:30:54;;;;;;;15.30;4.25;;;;;;;;;;4955620;29;20188;-81
2021/03/22 02:33:45;;;;;;;18.92;5.95;;;;;;;;;;4955577;29;20176;-82
2021/03/22 02:36:12;;;;;;;10.32;4.45;;;;;;;;;;4955625;29;20201;-81
2021/03/22 02:38:47;;;;;;;17.40;6.60;;;;;;;;;;4955839;29;20170;-80
2021/03/22 02:41:22;;;;;;;9.48;5.72;;;;;;;;;;4955448;29;20244;-80
2021/03/22 02:44:06;;;;;;;17.92;4.97;;;;;;;;;;4955733;29;20206;-81
2021/03/22 02:46:33;;;;;;;17.90;4.80;;;;;;;;;;4955495;29;20226;-79
2021/03/22 02:48:59;;;;;;;14.45;5.03;;;;;;;;;;4955418;29;20228;-82
2021/03/22 02:51:32;;;;;;;17.58;5.53;;;;;;;;;;4955250;29;20229;-82
2021/03/22 02:54:04;;;;;;;17.77;6.20;;;;;;;;;;4955425;29;20205;-81
2021/03/22 02:56:33;;;;;;;14.50;5.13;;;;;;;;;;4955015;28;20181;-81
2021/03/22 02:59:35;;;;;;;11.88;5.35;;;;;;;;;;4955341;29;20169;-81
2021/03/22 03:02:02;;;;;;;13.75;5.05;;;;;;;;;;4877513;29;20631;-81
2021/03/22 03:04:30;;;;;;;12.07;4.32;;;;;;;;;;4940074;29;20203;-81
2021/03/22 03:06:58;;;;;;;9.63;4.97;;;;;;;;;;4955240;29;20185;-81
2021/03/22 03:09:26;;;;;;;19.58;4.70;;;;;;;;;;4937865;29;20208;-80
2021/03/22 03:11:53;;;;;;;16.50;4.75;;;;;;;;;;4955283;29;20201;-81
2021/03/22 03:14:19;;;;;;;12.57;4.63;;;;;;;;;;4955306;29;20239;-82
2021/03/22 03:16:45;;;;;;;13.75;4.00;;;;;;;;;;4954915;29;20508;-80
2021/03/22 03:19:11;;;;;;;15.65;5.28;;;;;;;;;;4954919;29;20188;-81
2021/03/22 03:21:38;;;;;;;14.32;3.97;;;;;;;;;;4954812;29;20215;-82
2021/03/22 03:24:08;;;;;;;14.63;4.40;;;;;;;;;;4954940;29;20264;-80
2021/03/22 03:26:34;;;;;;;9.52;3.88;;;;;;;;;;4955392;29;20177;-81
2021/03/22 03:29:00;;;;;;;14.35;4.93;;;;;;;;;;4954746;29;20174;-81
2021/03/22 03:31:26;;;;;;;18.58;4.25;;;;;;;;;;4954676;29;20239;-82
2021/03/22 03:33:52;;;;;;;23.75;4.20;;;;;;;;;;4955110;29;20512;-83
2021/03/22 03:36:18;;;;;;;12.40;3.77;;;;;;;;;;4954459;29;20172;-83
2021/03/22 03:38:44;;;;;;;18.50;4.77;;;;;;;;;;4937375;29;20990;-82
2021/03/22 03:41:10;;;;;;;13.73;4.00;;;;;;;;;;4954496;29;20530;-82
2021/03/22 03:43:37;;;;;;;13.10;3.60;;;;;;;;;;4954766;29;20173;-81
2021/03/22 03:46:03;;;;;;;13.48;4.32;;;;;;;;;;4954816;29;20455;-82
2021/03/22 03:48:29;;;;;;;13.27;4.15;;;;;;;;;;4954495;29;20175;-80
2021/03/22 03:50:56;;;;;;;13.23;4.65;;;;;;;;;;4954466;28;20199;-82
2021/03/22 03:53:22;;;;;;;15.45;4.63;;;;;;;;;;4954566;29;20178;-82
2021/03/22 03:55:49;;;;;;;17.05;5.10;;;;;;;;;;4954607;29;20243;-82
2021/03/22 03:58:15;;;;;;;22.13;4.60;;;;;;;;;;4954436;29;20168;-81
2021/03/22 04:00:43;;;;;;;15.75;7.15;;;;;;;;;;4954248;29;20570;-82
2021/03/22 04:06:15;;;;;;;15.73;4.95;;;;;;;;;;4954295;29;20192;-83
2021/03/22 04:08:42;;;;;;;18.27;4.65;;;;;;;;;;4953374;29;20537;-82
2021/03/22 04:11:10;;;;;;;10.15;4.20;;;;;;;;;;4954382;29;20193;-82
2021/03/22 04:13:36;;;;;;;10.68;4.30;;;;;;;;;;4954304;29;20196;-81
2021/03/22 04:16:03;;;;;;;16.55;4.60;;;;;;;;;;4954027;29;20168;-82
2021/03/22 04:21:33;;;;;;;13.80;3.67;;;;;;;;;;4953744;29;20585;-81
2021/03/22 04:24:00;;;;;;;8.82;3.33;;;;;;;;;;4953987;29;20179;-82
2021/03/22 04:26:26;;;;;;;19.73;6.47;;;;;;;;;;4953969;29;20561;-81
2021/03/22 04:28:52;;;;;;;13.20;4.32;;;;;;;;;;4953893;29;20268;-82
2021/03/22 04:31:20;;;;;;;11.40;4.70;;;;;;;;;;4953917;29;20259;-81
2021/03/22 04:33:46;;;;;;;13.32;4.30;;;;;;;;;;4953967;29;20176;-83
2021/03/22 04:36:13;;;;;;;15.25;4.25;;;;;;;;;;4953967;29;20251;-81
2021/03/22 04:38:39;;;;;;;17.88;3.58;;;;;;;;;;4953706;29;20224;-82
2021/03/22 04:41:06;;;;;;;18.40;3.80;;;;;;;;;;4953693;29;20620;-81
2021/03/22 04:43:32;;;;;;;9.30;3.55;;;;;;;;;;4953786;29;20223;-83
2021/03/22 04:45:59;;;;;;;11.88;4.00;;;;;;;;;;4953778;29;20168;-82
2021/03/22 04:51:29;;;;;;;10.45;4.13;;;;;;;;;;4953869;29;20672;-81
2021/03/22 04:53:56;;;;;;;9.68;3.33;;;;;;;;;;4953802;29;20251;-83
2021/03/22 04:56:22;;;;;;;8.43;5.03;;;;;;;;;;4953802;29;20172;-80
2021/03/22 04:58:48;;;;;;;11.55;3.70;;;;;;;;;;4953870;29;20200;-80
2021/03/22 05:01:14;;;;;;;8.82;3.55;;;;;;;;;;4953408;29;20733;-80
2021/03/22 05:06:44;;;;;;;18.33;4.65;;;;;;;;;;4953356;29;20731;-82
2021/03/22 05:09:10;;;;;;;11.37;3.47;;;;;;;;;;4953859;29;20168;-80
2021/03/22 05:11:36;;;;;;;12.60;3.90;;;;;;;;;;4954243;29;20432;-81
2021/03/22 05:14:02;;;;;;;15.67;3.97;;;;;;;;;;4954137;29;20416;-80
2021/03/22 05:16:28;;;;;;;11.43;4.18;;;;;;;;;;4954355;29;20427;-83
2021/03/22 05:21:58;;;;;;;9.43;3.45;;;;;;;;;;4958773;29;20201;-83
2021/03/22 05:24:25;;;;;;;13.60;3.83;;;;;;;;;;4959580;29;20176;-80
2021/03/22 05:26:51;;;;;;;14.60;4.60;;;;;;;;;;4958378;29;20177;-79
2021/03/22 05:29:18;;;;;;;17.87;3.70;;;;;;;;;;4957106;29;20255;-82
2021/03/22 05:31:44;;;;;;;7.45;2.90;;;;;;;;;;4957226;29;20413;-84
2021/03/22 05:37:13;;;;;;;8.10;3.10;;;;;;;;;;4957139;29;20650;-82
2021/03/22 05:39:39;;;;;;;14.33;3.57;;;;;;;;;;4956438;29;20168;-82
2021/03/22 05:42:18;;;;;;;11.63;3.20;;;;;;;;;;4956825;29;20772;-82
2021/03/22 05:45:10;;;;;;;13.88;4.00;;;;;;;;;;4956639;29;20534;-81
2021/03/22 05:47:49;;;;;;;19.00;3.40;;;;;;;;;;4953588;29;20212;-81
2021/03/22 05:50:17;;;;;;;13.88;4.18;;;;;;;;;;4957125;29;20169;-81
2021/03/22 05:52:55;;;;;;;11.52;2.90;;;;;;;;;;4956755;29;20231;-81
2021/03/22 05:55:21;;;;;;;14.20;3.22;;;;;;;;;;4955795;29;20620;-80
2021/03/22 05:57:58;;;;;;;10.53;4.30;;;;;;;;;;4955829;29;20182;-78
2021/03/22 06:00:36;;;;;;;17.27;3.03;;;;;;;;;;4955979;29;20462;-83
2021/03/22 06:03:08;;;;;;;15.80;3.58;;;;;;;;;;4956405;29;20176;-82
2021/03/22 06:05:40;;;;;;;10.82;4.00;;;;;;;;;;4955749;29;20243;-81
2021/03/22 06:08:25;;;;;;;10.07;3.75;;;;;;;;;;4955451;29;20260;-79
2021/03/22 06:10:52;;;;;;;5.47;2.45;;;;;;;;;;4956076;29;20571;-82
2021/03/22 06:13:26;;;;;;;10.38;3.42;;;;;;;;;;4956069;29;20165;-80
2021/03/22 06:15:58;;;;;;;10.73;3.35;;;;;;;;;;4955586;29;20176;-81
2021/03/22 06:18:33;;;;;;;10.60;3.58;;;;;;;;;;4955522;29;20172;-79
2021/03/22 06:21:02;;;;;;;11.40;3.33;;;;;;;;;;4955364;29;20292;-83
2021/03/22 06:23:38;;;;;;;10.88;2.75;;;;;;;;;;4955096;29;20686;-82
2021/03/22 06:26:05;;;;;;;13.10;3.85;;;;;;;;;;4955777;29;20207;-83
2021/03/22 06:28:32;;;;;;;10.73;4.10;;;;;;;;;;4955593;29;20197;-82
2021/03/22 06:30:58;;;;;;;11.00;3.85;;;;;;;;;;4954642;28;20536;-82
2021/03/22 06:33:27;;;;;;;15.57;4.20;;;;;;;;;;4956477;29;20174;-81
2021/03/22 06:35:53;;;;;;;12.43;3.95;;;;;;;;;;4956412;29;20413;-81
2021/03/22 06:38:19;;;;;;;13.07;4.03;;;;;;;;;;4956033;29;20225;-79
2021/03/22 06:40:45;;;;;;;11.57;4.93;;;;;;;;;;4956423;29;20210;-82
2021/03/22 06:43:13;;;;;;;9.82;3.50;;;;;;;;;;4956170;29;20173;-83
2021/03/22 06:45:47;;;;;;;14.38;5.75;;;;;;;;;;4955742;29;20522;-81
2021/03/22 06:48:33;;;;;;;11.35;4.32;;;;;;;;;;4954959;29;20175;-79
2021/03/22 06:51:02;;;;;;;9.68;5.30;;;;;;;;;;4955061;29;20233;-79
2021/03/22 06:53:39;;;;;;;8.07;4.53;;;;;;;;;;4955051;29;20181;-80
2021/03/22 06:56:13;;;;;;;13.90;3.35;;;;;;;;;;4955462;29;20181;-81
2021/03/22 06:58:39;;;;;;;8.50;3.50;;;;;;;;;;4954552;29;20173;-80
2021/03/22 07:01:17;;;;;;;15.30;4.50;;;;;;;;;;4954391;29;20217;-80
2021/03/22 07:03:43;;;;;;;9.95;3.85;;;;;;;;;;4954870;29;20418;-80
2021/03/22 07:06:19;;;;;;;11.30;4.40;;;;;;;;;;4954403;29;20198;-79
2021/03/22 07:08:46;;;;;;;12.13;4.30;;;;;;;;;;4954591;29;20169;-79
2021/03/22 07:11:13;;;;;;;8.80;3.53;;;;;;;;;;4954696;29;20663;-79
2021/03/22 07:13:50;;;;;;;11.85;3.40;;;;;;;;;;4961039;29;20174;-80
2021/03/22 07:16:21;;;;;;;20.40;4.18;;;;;;;;;;4956686;29;20180;-80
2021/03/22 07:19:07;;;;;;;11.18;4.00;;;;;;;;;;4955291;29;20169;-81
2021/03/22 07:21:34;;;;;;;17.85;4.15;;;;;;;;;;4955404;29;20565;-81
2021/03/22 07:24:03;;;;;;;18.55;4.63;;;;;;;;;;4955715;29;20170;-79
2021/03/22 07:26:35;;;;;;;6.80;2.88;;;;;;;;;;4954416;29;20633;-81
2021/03/22 07:29:07;;;;;;;13.65;3.78;;;;;;;;;;4937233;29;20567;-80
2021/03/22 07:31:39;;;;;;;16.63;3.67;;;;;;;;;;4955498;29;20660;-78
2021/03/22 07:34:24;;;;;;;9.82;3.30;;;;;;;;;;4956867;29;20172;-83
2021/03/22 07:37:16;;;;;;;16.23;3.92;;;;;;;;;;4957354;29;20169;-77
2021/03/22 07:39:42;;;;;;;13.13;4.72;;;;;;;;;;4955669;29;20187;-81
2021/03/22 07:42:24;;;;;;;16.80;4.60;;;;;;;;;;4954402;28;20188;-83
2021/03/22 07:44:55;;;;;;;15.73;3.65;;;;;;;;;;4954867;29;20423;-80
2021/03/22 07:47:39;;;;;;;9.32;4.07;;;;;;;;;;4953555;29;20278;-81
2021/03/22 07:50:21;;;;;;;18.33;3.50;;;;;;;;;;4953063;29;20172;-82
2021/03/22 07:52:56;;;;;;;10.52;3.67;;;;;;;;;;4952977;29;20610;-82
2021/03/22 07:55:24;;;;;;;13.43;3.65;;;;;;;;;;4954370;29;20205;-82
2021/03/22 07:57:53;;;;;;;15.85;3.95;;;;;;;;;;4954127;29;20177;-81
2021/03/22 08:00:43;;;;;;;16.77;4.05;;;;;;;;;;4953648;29;20285;-83
2021/03/22 08:06:26;;;;;;;6.03;3.55;;;;;;;;;;4954158;29;20198;-81
2021/03/22 08:09:04;;;;;;;8.98;3.58;;;;;;;;;;4953619;29;20178;-79
2021/03/22 08:11:45;;;;;;;7.28;3.10;;;;;;;;;;4953588;29;20176;-80
2021/03/22 08:14:30;;;;;;;7.38;2.95;;;;;;;;;;4953551;29;20221;-80
2021/03/22 08:17:07;;;;;;;12.13;3.55;;;;;;;;;;4953652;29;20203;-80
2021/03/22 08:22:40;;;;;;;7.18;2.67;;;;;;;;;;4954258;29;20241;-81
2021/03/22 08:25:18;;;;;;;14.27;3.55;;;;;;;;;;4954548;29;20186;-81
2021/03/22 08:27:47;;;;;;;6.20;2.05;;;;;;;;;;4954771;29;20176;-82
2021/03/22 08:30:26;;;;;;;9.68;2.60;;;;;;;;;;4955964;29;20531;-81
2021/03/22 08:32:59;;;;;;;8.45;3.17;;;;;;;;;;4955522;29;20173;-83
2021/03/22 08:38:40;;;;;;;8.88;2.35;;;;;;;;;;4963276;29;20184;-88
2021/03/22 08:41:18;;;;;;;12.43;3.15;;;;;;;;;;4957815;29;20217;-88
2021/03/22 08:43:44;;;;;;;8.32;2.40;;;;;;;;;;4957732;29;20246;-85
2021/03/22 08:46:19;;;;;;;7.82;2.38;;;;;;;;;;4956308;29;20239;-83
2021/03/22 08:48:45;;;;;;;8.13;2.33;;;;;;;;;;4955366;29;20167;-84
2021/03/22 08:51:31;;;;;;;4.35;2.28;;;;;;;;;;4955960;29;20305;-84
2021/03/22 08:53:59;;;;;;;15.93;2.97;;;;;;;;;;4963162;28;20205;-82
2021/03/22 08:56:31;;;;;;;5.97;1.73;;;;;;;;;;4958752;29;20318;-83
2021/03/22 08:59:02;;;;;;;7.20;2.97;;;;;;;;;;4957675;29;20662;-82
2021/03/22 09:01:48;;;;;;;6.10;2.78;;;;;;;;;;4970592;29;20254;-83
2021/03/22 09:04:20;;;;;;;8.10;2.33;;;;;;;;;;4965741;29;20175;-86
2021/03/22 09:07:04;;;;;;;6.38;2.00;;;;;;;;;;4956527;29;20172;-82
2021/03/22 09:09:35;;;;;;;6.50;3.22;;;;;;;;;;4959856;29;20199;-80
2021/03/22 09:12:07;;;;;;;4.75;2.90;;;;;;;;;;4962749;29;20194;-83
2021/03/22 09:14:37;;;;;;;8.18;2.75;;;;;;;;;;4959017;29;20623;-81
2021/03/22 09:17:20;;;;;;;6.72;2.40;;;;;;;;;;4956122;29;20551;-82
2021/03/22 09:19:46;;;;;;;7.40;2.45;;;;;;;;;;4956457;29;20234;-84
2021/03/22 09:22:13;;;;;;;6.30;2.40;;;;;;;;;;4954164;29;20175;-83
2021/03/22 09:24:39;;;;;;;9.43;2.70;;;;;;;;;;4955819;29;20179;-84
2021/03/22 09:27:19;;;;;;;7.78;2.67;;;;;;;;;;4955441;29;20176;-83
2021/03/22 09:29:52;;;;;;;7.00;2.57;;;;;;;;;;4953636;29;20225;-82
2021/03/22 09:32:27;;;;;;;6.75;2.45;;;;;;;;;;4944184;29;20426;-82
2021/03/22 09:34:53;;;;;;;10.15;2.70;;;;;;;;;;4962819;29;20170;-85
2021/03/22 09:37:38;;;;;;;8.60;2.13;;;;;;;;;;4963730;29;20174;-82
2021/03/22 09:40:07;;;;;;;4.53;1.83;;;;;;;;;;4959815;29;20465;-82
2021/03/22 09:42:37;;;;;;;13.88;2.85;;;;;;;;;;4960952;29;20185;-80
2021/03/22 09:45:17;;;;;;;3.65;1.95;;;;;;;;;;4957864;29;20172;-83
2021/03/22 09:47:43;;;;;;;6.40;2.65;;;;;;;;;;4959833;29;20179;-83
2021/03/22 09:50:09;;;;;;;1.90;1.35;;;;;;;;;;4958631;29;20175;-83
2021/03/22 09:52:38;;;;;;;3.27;1.80;;;;;;;;;;4936241;29;20246;-82
2021/03/22 09:55:33;;;;;;;7.03;1.95;;;;;;;;;;4938271;29;20433;-85
2021/03/22 09:58:18;;;;;;;5.60;1.95;;;;;;;;;;4924599;29;20208;-82
2021/03/22 10:00:44;;;;;;;8.07;2.72;;;;;;;;;;4939581;29;20269;-84
2021/03/22 10:03:28;;;;;;;4.90;2.00;;;;;;;;;;4937229;29;20191;-83
2021/03/22 10:05:55;;;;;;;8.43;2.67;;;;;;;;;;4934866;29;20431;-79
2021/03/22 10:08:29;;;;;;;4.80;2.80;;;;;;;;;;4935358;29;20180;-79
2021/03/22 10:10:57;;;;;;;5.45;2.38;;;;;;;;;;4935886;29;20554;-82
2021/03/22 10:13:27;;;;;;;9.80;2.55;;;;;;;;;;4936024;29;20238;-83
2021/03/22 10:15:55;;;;;;;5.10;2.40;;;;;;;;;;4938149;29;20176;-79
2021/03/22 10:18:29;;;;;;;7.43;2.03;;;;;;;;;;4937524;29;20516;-83
2021/03/22 10:21:08;;;;;;;8.57;1.90;;;;;;;;;;4936803;29;20215;-82
2021/03/22 10:23:37;;;;;;;7.80;2.13;;;;;;;;;;4935099;29;20175;-77
2021/03/22 10:26:09;;;;;;;14.63;2.75;;;;;;;;;;4933933;29;20179;-79
2021/03/22 10:28:35;;;;;;;7.80;2.25;;;;;;;;;;4934432;29;20259;-79
2021/03/22 10:31:01;;;;;;;6.10;2.75;;;;;;;;;;4934055;29;20249;-78
2021/03/22 10:33:28;;;;;;;7.32;2.35;;;;;;;;;;4933415;29;20176;-79
2021/03/22 10:35:55;;;;;;;8.05;2.03;;;;;;;;;;4933979;29;20172;-78
2021/03/22 10:38:26;;;;;;;6.90;2.43;;;;;;;;;;4933601;29;20242;-78
2021/03/22 10:40:53;;;;;;;7.27;2.40;;;;;;;;;;4933636;29;20464;-83
2021/03/22 10:43:35;;;;;;;2.50;2.30;;;;;;;;;;4934183;29;20958;-80
2021/03/22 10:46:17;;;;;;;5.27;2.30;;;;;;;;;;4934090;29;20772;-81
2021/03/22 10:48:43;;;;;;;9.23;2.37;;;;;;;;;;4934010;29;20499;-79
2021/03/22 10:51:17;;;;;;;8.37;2.10;;;;;;;;;;4938685;29;20968;-81
2021/03/22 10:53:53;;;;;;;3.60;1.90;;;;;;;;;;4954423;29;20878;-80
2021/03/22 10:56:21;;;;;;;3.20;1.93;;;;;;;;;;4954803;29;20423;-79
2021/03/22 10:58:47;;;;;;;7.25;3.40;;;;;;;;;;4954031;29;20426;-82
2021/03/22 11:01:17;;;;;;;7.47;2.20;;;;;;;;;;4954119;29;20269;-81
2021/03/22 11:03:48;;;;;;;14.95;2.78;;;;;;;;;;4953448;29;20650;-79
2021/03/22 11:06:19;;;;;;;5.10;2.85;;;;;;;;;;4953902;29;20179;-82
2021/03/22 11:08:52;;;;;;;12.85;2.50;;;;;;;;;;4954329;29;20290;-81
2021/03/22 11:11:20;;;;;;;8.30;2.33;;;;;;;;;;4953849;29;20175;-81
2021/03/22 11:13:48;;;;;;;5.70;2.58;;;;;;;;;;4953516;29;20199;-81
2021/03/22 11:16:34;;;;;;;7.20;2.55;;;;;;;;;;4953933;28;20175;-84
2021/03/22 11:19:06;;;;;;;6.40;2.90;;;;;;;;;;4952977;29;20199;-78
2021/03/22 11:21:32;;;;;;;5.75;3.38;;;;;;;;;;4953382;29;20207;-83
2021/03/22 11:23:58;;;;;;;8.13;2.42;;;;;;;;;;4954447;29;20495;-85
2021/03/22 11:26:26;;;;;;;3.20;2.20;;;;;;;;;;4954383;29;20508;-86
2021/03/22 11:29:11;;;;;;;4.13;3.15;;;;;;;;;;4954034;29;20207;-84
2021/03/22 11:31:37;;;;;;;7.65;2.88;;;;;;;;;;4954396;29;20250;-82
2021/03/22 11:34:15;;;;;;;11.20;2.85;;;;;;;;;;4955489;29;20205;-82
2021/03/22 11:36:43;;;;;;;8.95;2.95;;;;;;;;;;4954305;29;20263;-80
2021/03/22 11:39:11;;;;;;;5.88;2.72;;;;;;;;;;4958339;29;20263;-79
2021/03/22 11:41:39;;;;;;;5.07;2.42;;;;;;;;;;4958807;29;20217;-83
2021/03/22 11:44:14;;;;;;;7.72;2.65;;;;;;;;;;4954936;29;20226;-79
2021/03/22 11:46:41;;;;;;;7.40;2.13;;;;;;;;;;4954809;29;20209;-82
2021/03/22 11:49:27;;;;;;;4.65;1.73;;;;;;;;;;4954435;29;20784;-82
2021/03/22 11:51:53;;;;;;;5.15;1.90;;;;;;;;;;4953437;29;20573;-80
2021/03/22 11:54:19;;;;;;;10.13;2.95;;;;;;;;;;4953938;29;20186;-80
2021/03/22 11:56:56;;;;;;;5.60;2.03;;;;;;;;;;4954216;29;20536;-84
2021/03/22 11:59:23;;;;;;;4.40;2.33;;;;;;;;;;4954045;29;20419;-83
2021/03/22 12:02:08;;;;;;;6.85;3.10;;;;;;;;;;4936357;29;20430;-82
2021/03/22 12:04:34;;;;;;;8.73;2.80;;;;;;;;;;4953684;29;20540;-81
2021/03/22 12:07:02;;;;;;;10.20;2.80;;;;;;;;;;4953845;29;20559;-81
2021/03/22 12:09:29;;;;;;;8.13;2.45;;;;;;;;;;4953669;29;20434;-80
2021/03/22 12:11:56;;;;;;;4.90;2.70;;;;;;;;;;4953341;29;20219;-79
2021/03/22 12:14:22;;;;;;;4.57;2.60;;;;;;;;;;4953689;29;20510;-80
2021/03/22 12:16:49;;;;;;;4.93;2.70;;;;;;;;;;4953898;29;20454;-83
2021/03/22 12:19:17;;;;;;;8.40;2.10;;;;;;;;;;4954376;29;20408;-81
2021/03/22 12:21:44;;;;;;;8.38;2.97;;;;;;;;;;4953982;29;20558;-82
2021/03/22 12:24:14;;;;;;;6.90;3.07;;;;;;;;;;4954380;29;20206;-81
2021/03/22 12:26:41;;;;;;;13.83;2.60;;;;;;;;;;4953939;29;20439;-82
2021/03/22 12:29:07;;;;;;;4.63;2.13;;;;;;;;;;4953378;29;20760;-81
2021/03/22 12:31:35;;;;;;;3.73;2.07;;;;;;;;;;4953986;29;20416;-80
2021/03/22 12:34:03;;;;;;;8.37;2.70;;;;;;;;;;4953850;29;20422;-80
2021/03/22 12:36:30;;;;;;;6.33;3.23;;;;;;;;;;4953995;29;20906;-80
2021/03/22 12:38:56;;;;;;;6.70;2.55;;;;;;;;;;4954019;29;20415;-79
2021/03/22 12:41:27;;;;;;;5.20;2.80;;;;;;;;;;4953831;29;20664;-81
2021/03/22 12:43:53;;;;;;;8.00;2.63;;;;;;;;;;4954012;29;20411;-80
2021/03/22 12:46:19;;;;;;;9.10;2.43;;;;;;;;;;4936661;29;20440;-80
2021/03/22 12:48:45;;;;;;;7.20;3.20;;;;;;;;;;4953936;29;20415;-80
2021/03/22 12:51:11;;;;;;;4.57;2.80;;;;;;;;;;4936302;29;20483;-81
2021/03/22 12:53:37;;;;;;;11.47;3.03;;;;;;;;;;4953836;29;20494;-82
2021/03/22 12:56:05;;;;;;;4.30;2.50;;;;;;;;;;4953837;29;20973;-80
2021/03/22 12:58:31;;;;;;;5.00;2.15;;;;;;;;;;4953936;29;20423;-79
2021/03/22 13:00:57;;;;;;;3.43;2.30;;;;;;;;;;4936528;29;20231;-80
2021/03/22 13:03:24;;;;;;;7.80;2.30;;;;;;;;;;4953823;29;20404;-81
2021/03/22 13:05:55;;;;;;;12.33;2.50;;;;;;;;;;4953919;29;20422;-81
2021/03/22 13:11:24;;;;;;;3.23;2.07;;;;;;;;;;4954205;29;20184;-82
2021/03/22 13:13:50;;;;;;;5.43;2.00;;;;;;;;;;4953802;29;20410;-81
2021/03/22 13:16:20;;;;;;;7.97;2.42;;;;;;;;;;4953906;29;20173;-82
2021/03/22 13:18:46;;;;;;;9.45;2.45;;;;;;;;;;4954466;29;20525;-81
2021/03/22 13:21:14;;;;;;;12.30;2.30;;;;;;;;;;4953880;29;20214;-83
2021/03/22 13:23:41;;;;;;;2.92;2.20;;;;;;;;;;4953516;29;20444;-80
2021/03/22 13:26:08;;;;;;;7.82;3.00;;;;;;;;;;4953054;29;20178;-83
2021/03/22 13:28:38;;;;;;;5.93;2.10;;;;;;;;;;4950296;29;20198;-84
2021/03/22 13:31:05;;;;;;;8.70;2.65;;;;;;;;;;4952889;29;20471;-82
2021/03/22 13:33:32;;;;;;;6.65;2.53;;;;;;;;;;4952390;29;20186;-80
2021/03/22 13:35:58;;;;;;;3.83;2.30;;;;;;;;;;4952109;29;20491;-82
2021/03/22 13:41:28;;;;;;;3.65;2.60;;;;;;;;;;4956077;29;20225;-82
2021/03/22 13:43:56;;;;;;;6.97;2.95;;;;;;;;;;4956434;29;20222;-82
2021/03/22 13:46:22;;;;;;;3.80;2.72;;;;;;;;;;4955067;29;20167;-81
2021/03/22 13:48:48;;;;;;;5.50;2.60;;;;;;;;;;4954291;29;20559;-82
2021/03/22 13:51:16;;;;;;;6.40;3.10;;;;;;;;;;4954438;29;20226;-83
2021/03/22 13:56:46;;;;;;;5.30;2.28;;;;;;;;;;4955459;29;20232;-81
2021/03/22 13:59:31;;;;;;;4.90;2.92;;;;;;;;;;4955916;29;20166;-80
2021/03/22 14:01:57;;;;;;;6.38;3.13;;;;;;;;;;4953822;29;20219;-80
2021/03/22 14:04:25;;;;;;;9.13;3.10;;;;;;;;;;4952240;29;20179;-82
2021/03/22 14:06:51;;;;;;;4.25;2.80;;;;;;;;;;4952107;29;20422;-82
2021/03/22 14:09:19;;;;;;;6.20;3.42;;;;;;;;;;4952842;29;20181;-81
2021/03/22 14:11:45;;;;;;;5.68;3.50;;;;;;;;;;4954817;29;20179;-83
2021/03/22 14:14:11;;;;;;;5.00;2.97;;;;;;;;;;4938529;29;20199;-81
2021/03/22 14:16:38;;;;;;;4.57;3.43;;;;;;;;;;4938465;29;20441;-84
2021/03/22 14:19:04;;;;;;;4.72;3.45;;;;;;;;;;4956189;29;20423;-82
2021/03/22 14:21:31;;;;;;;5.80;3.13;;;;;;;;;;4938561;29;20219;-83
2021/03/22 14:27:00;;;;;;;8.10;3.97;;;;;;;;;;4956039;29;20422;-82
2021/03/22 14:29:26;;;;;;;5.33;4.00;;;;;;;;;;4955370;29;20167;-82
2021/03/22 14:31:52;;;;;;;7.13;4.47;;;;;;;;;;4955799;29;20943;-84
2021/03/22 14:34:19;;;;;;;3.63;3.33;;;;;;;;;;4955961;29;20175;-85
2021/03/22 14:36:44;;;;;;;7.03;4.47;;;;;;;;;;4955231;29;20174;-82
2021/03/22 14:39:11;;;;;;;8.50;3.40;;;;;;;;;;4954855;29;20629;-81
2021/03/22 14:41:37;;;;;;;5.30;3.93;;;;;;;;;;4955098;29;20471;-82
2021/03/22 14:44:03;;;;;;;5.95;3.65;;;;;;;;;;4955196;29;20419;-83
2021/03/22 14:46:29;;;;;;;7.22;3.63;;;;;;;;;;4955199;29;20211;-83
2021/03/22 14:48:55;;;;;;;7.20;3.95;;;;;;;;;;4955178;29;20175;-81
2021/03/22 14:51:21;;;;;;;9.57;4.45;;;;;;;;;;4954768;28;20234;-81
2021/03/22 14:56:51;;;;;;;8.45;4.00;;;;;;;;;;4955246;29;20230;-82
2021/03/22 14:59:17;;;;;;;8.03;4.90;;;;;;;;;;4955048;29;20179;-81
2021/03/22 15:01:43;;;;;;;6.80;4.43;;;;;;;;;;4955426;29;20549;-80
2021/03/22 15:04:10;;;;;;;4.28;3.67;;;;;;;;;;4956008;29;20862;-82
2021/03/22 15:06:36;;;;;;;5.88;3.90;;;;;;;;;;4955544;29;20222;-81
2021/03/22 15:12:08;;;;;;;4.90;4.38;;;;;;;;;;4955501;29;20178;-84
2021/03/22 15:14:34;;;;;;;7.60;4.30;;;;;;;;;;4954751;29;20185;-83
2021/03/22 15:17:00;;;;;;;6.28;4.53;;;;;;;;;;4954833;29;20221;-83
2021/03/22 15:19:26;;;;;;;5.30;4.10;;;;;;;;;;4954418;29;20536;-81
2021/03/22 15:21:53;;;;;;;6.88;5.07;;;;;;;;;;4954681;29;20635;-81
2021/03/22 15:27:23;;;;;;;12.02;4.15;;;;;;;;;;4954665;29;20177;-82
2021/03/22 15:29:49;;;;;;;9.27;5.22;;;;;;;;;;4954570;29;20315;-82
2021/03/22 15:32:15;;;;;;;5.40;3.60;;;;;;;;;;4954467;29;20350;-82
2021/03/22 15:34:41;;;;;;;4.40;3.93;;;;;;;;;;4954858;29;20421;-83
2021/03/22 15:37:09;;;;;;;8.83;4.60;;;;;;;;;;4953566;29;20819;-80
2021/03/22 15:42:38;;;;;;;6.80;4.32;;;;;;;;;;4953689;29;20253;-82
2021/03/22 15:45:07;;;;;;;7.03;4.57;;;;;;;;;;4936499;29;20189;-80
2021/03/22 15:47:33;;;;;;;9.45;4.53;;;;;;;;;;4953792;29;20234;-80
2021/03/22 15:49:59;;;;;;;4.60;3.50;;;;;;;;;;4953845;29;20169;-82
2021/03/22 15:52:26;;;;;;;9.30;4.60;;;;;;;;;;4953220;29;20469;-81
2021/03/22 15:57:56;;;;;;;7.35;4.13;;;;;;;;;;4953535;29;20189;-81
2021/03/22 16:00:25;;;;;;;8.55;4.20;;;;;;;;;;4952700;29;20208;-81
2021/03/22 16:02:51;;;;;;;5.50;4.35;;;;;;;;;;4952038;28;20254;-77
2021/03/22 16:05:17;;;;;;;9.33;4.13;;;;;;;;;;4952107;29;20198;-77
2021/03/22 16:07:47;;;;;;;6.03;3.88;;;;;;;;;;4952401;29;20517;-80